createdAt,value
2022-08-07T00:02:35.418Z,35.72
2022-08-07T00:04:15.593Z,36.20
2022-08-07T00:06:51.719Z,43.80
2022-08-07T00:09:29.208Z,42.20
2022-08-07T00:12:04.210Z,43.20
2022-08-07T00:14:33.224Z,38.70
2022-08-07T00:17:02.378Z,31.70
2022-08-07T00:20:00.536Z,51.67
2022-08-07T00:22:34.555Z,50.80
2022-08-07T00:25:07.060Z,41.88
2022-08-07T00:27:52.244Z,53.42
2022-08-07T00:30:27.207Z,47.45
2022-08-07T00:32:57.396Z,68.75
2022-08-07T00:35:27.303Z,61.92
2022-08-07T00:37:58.961Z,64.45
2022-08-07T00:40:39.638Z,50.95
2022-08-07T00:43:10.819Z,67.85
2022-08-07T00:45:58.990Z,68.43
2022-08-07T00:48:30.978Z,62.42
2022-08-07T00:51:01.264Z,71.32
2022-08-07T00:53:39.127Z,62.78
2022-08-07T00:56:20.440Z,67.07
2022-08-07T00:58:49.991Z,61.78
2022-08-07T01:01:20.353Z,57.08
2022-08-07T01:03:56.438Z,88.07
2022-08-07T01:06:29.351Z,76.35
2022-08-07T01:09:02.835Z,67.15
2022-08-07T01:12:09.488Z,72.20
2022-08-07T01:14:28.843Z,60.40
2022-08-07T01:16:59.229Z,64.70
2022-08-07T01:19:32.607Z,69.82
2022-08-07T01:22:08.806Z,92.72
2022-08-07T01:24:42.112Z,98.35
2022-08-07T01:27:19.988Z,82.40
2022-08-07T01:29:50.648Z,138.63
2022-08-07T01:32:22.579Z,89.55
2022-08-07T01:34:53.655Z,72.82
2022-08-07T01:37:23.861Z,61.35
2022-08-07T01:39:59.151Z,86.50
2022-08-07T01:42:38.433Z,87.50
2022-08-07T01:45:36.120Z,87.20
2022-08-07T01:48:29.616Z,46.08
2022-08-07T01:50:57.341Z,56.47
2022-08-07T01:54:09.999Z,72.78
2022-08-07T01:56:24.275Z,69.47
2022-08-07T01:59:01.202Z,74.75
2022-08-07T02:02:02.297Z,74.95
2022-08-07T02:04:27.617Z,78.73
2022-08-07T02:07:03.281Z,90.03
2022-08-07T02:09:52.625Z,79.33
2022-08-07T02:12:30.930Z,58.05
2022-08-07T02:15:05.830Z,127.93
2022-08-07T02:17:49.743Z,60.70
2022-08-07T02:20:23.742Z,56.05
2022-08-07T02:22:57.618Z,49.57
2022-08-07T02:26:10.792Z,61.50
2022-08-07T02:28:25.669Z,64.90
2022-08-07T02:31:18.669Z,48.87
2022-08-07T02:34:04.022Z,70.07
2022-08-07T02:36:45.224Z,39.30
2022-08-07T02:39:42.451Z,50.57
2022-08-07T02:42:14.785Z,49.37
2022-08-07T02:44:48.904Z,51.20
2022-08-07T02:47:23.355Z,46.67
2022-08-07T02:49:59.678Z,42.97
2022-08-07T02:52:34.796Z,43.23
2022-08-07T02:55:27.810Z,59.10
2022-08-07T02:57:59.145Z,96.13
2022-08-07T03:00:30.496Z,63.77
2022-08-07T03:03:00.517Z,62.73
2022-08-07T03:05:38.005Z,41.60
2022-08-07T03:08:10.174Z,49.80
2022-08-07T03:10:46.520Z,59.93
2022-08-07T03:13:21.681Z,45.03
2022-08-07T03:15:58.533Z,53.33
2022-08-07T03:18:34.575Z,61.80
2022-08-07T03:21:08.889Z,40.70
2022-08-07T03:24:20.966Z,61.33
2022-08-07T03:26:34.308Z,52.53
2022-08-07T03:29:11.028Z,57.33
2022-08-07T03:31:43.942Z,45.20
2022-08-07T03:34:22.632Z,69.77
2022-08-07T03:36:58.056Z,77.23
2022-08-07T03:39:46.024Z,49.50
2022-08-07T03:42:17.717Z,95.53
2022-08-07T03:44:53.533Z,58.83
2022-08-07T03:47:29.555Z,70.53
2022-08-07T03:50:17.524Z,59.00
2022-08-07T03:52:53.016Z,59.97
2022-08-07T03:55:22.244Z,78.83
2022-08-07T03:58:32.940Z,57.10
2022-08-07T04:00:46.591Z,44.53
2022-08-07T04:03:23.775Z,65.10
2022-08-07T04:05:58.818Z,59.60
2022-08-07T04:08:29.794Z,72.60
2022-08-07T04:12:24.945Z,42.63
2022-08-07T04:14:33.187Z,44.77
2022-08-07T04:16:43.029Z,62.13
2022-08-07T04:19:50.959Z,45.07
2022-08-07T04:22:17.820Z,70.40
2022-08-07T04:24:46.767Z,41.87
2022-08-07T04:27:25.538Z,46.97
2022-08-07T04:30:01.917Z,54.70
2022-08-07T04:32:47.969Z,42.37
2022-08-07T04:35:18.606Z,110.83
2022-08-07T04:38:03.083Z,38.87
2022-08-07T04:40:36.012Z,33.60
2022-08-07T04:44:10.604Z,31.30
2022-08-07T04:46:20.099Z,45.40
2022-08-07T04:49:01.600Z,63.37
2022-08-07T04:51:36.555Z,38.90
2022-08-07T04:54:07.708Z,48.30
2022-08-07T04:58:15.219Z,51.43
2022-08-07T05:00:12.833Z,55.50
2022-08-07T05:02:28.700Z,67.73
2022-08-07T05:05:02.247Z,70.37
2022-08-07T05:07:51.557Z,83.07
2022-08-07T05:10:26.545Z,95.03
2022-08-07T05:13:01.572Z,50.30
2022-08-07T05:15:49.361Z,77.10
2022-08-07T05:18:22.678Z,57.40
2022-08-07T05:20:55.294Z,63.00
2022-08-07T05:23:29.793Z,37.30
2022-08-07T05:26:13.120Z,40.40
2022-08-07T05:28:49.946Z,51.10
2022-08-07T05:31:20.065Z,139.97
2022-08-07T05:34:01.275Z,40.23
2022-08-07T05:36:36.640Z,49.83
2022-08-07T05:40:05.603Z,20.37
2022-08-07T05:42:08.770Z,32.97
2022-08-07T05:44:52.957Z,16.27
2022-08-07T05:47:38.185Z,16.23
2022-08-07T05:50:21.445Z,16.87
2022-08-07T05:52:51.625Z,25.13
2022-08-07T05:55:20.169Z,27.43
2022-08-07T05:57:50.377Z,19.70
2022-08-07T06:00:19.763Z,21.23
2022-08-07T06:02:57.947Z,25.13
2022-08-07T06:05:31.483Z,24.20
2022-08-07T06:08:29.543Z,69.47
2022-08-07T06:10:56.581Z,9.20
2022-08-07T06:14:10.897Z,52.40
2022-08-07T06:16:16.862Z,69.00
2022-08-07T06:18:51.613Z,50.57
2022-08-07T06:22:16.649Z,15.17
2022-08-07T06:24:52.492Z,45.93
2022-08-07T06:27:04.361Z,53.57
2022-08-07T06:29:38.830Z,27.10
2022-08-07T06:32:08.725Z,7.53
2022-08-07T06:34:37.294Z,6.90
2022-08-07T06:37:10.264Z,19.67
2022-08-07T06:40:17.950Z,10.00
2022-08-07T06:42:38.101Z,5.67
2022-08-07T06:45:18.306Z,5.77
2022-08-07T06:47:58.409Z,7.70
2022-08-07T06:50:31.491Z,5.17
2022-08-07T06:53:04.196Z,16.23
2022-08-07T06:55:48.030Z,6.40
2022-08-07T06:58:27.546Z,8.10
2022-08-07T07:01:02.973Z,4.63
2022-08-07T07:03:48.871Z,4.70
2022-08-07T07:06:26.073Z,4.23
2022-08-07T07:08:58.152Z,5.15
2022-08-07T07:12:08.416Z,3.57
2022-08-07T07:14:18.261Z,21.20
2022-08-07T07:16:50.774Z,10.77
2022-08-07T07:19:57.052Z,6.07
2022-08-07T07:22:36.322Z,15.30
2022-08-07T07:26:30.460Z,4.10
2022-08-07T07:28:02.433Z,3.25
2022-08-07T07:30:38.415Z,4.25
2022-08-07T07:33:11.844Z,6.05
2022-08-07T07:35:54.175Z,6.57
2022-08-07T07:38:34.857Z,15.77
2022-08-07T07:41:08.940Z,70.97
2022-08-07T07:44:14.314Z,7.20
2022-08-07T07:46:40.493Z,3.17
2022-08-07T07:50:36.411Z,3.28
2022-08-07T07:52:10.892Z,28.52
2022-08-07T07:54:40.059Z,4.38
2022-08-07T07:57:21.521Z,6.85
2022-08-07T08:00:20.853Z,24.67
2022-08-07T08:03:05.039Z,14.98
2022-08-07T08:05:50.862Z,6.63
2022-08-07T08:08:35.914Z,26.13
2022-08-07T08:11:59.507Z,45.53
2022-08-07T08:14:24.659Z,8.63
2022-08-07T08:16:57.999Z,3.50
2022-08-07T08:20:23.212Z,19.65
2022-08-07T08:22:56.214Z,14.32
2022-08-07T08:27:20.483Z,45.42
2022-08-07T08:28:37.889Z,2.53
2022-08-07T08:31:08.650Z,42.38
2022-08-07T08:33:49.055Z,47.00
2022-08-07T08:36:18.629Z,21.30
2022-08-07T08:38:56.214Z,39.55
2022-08-07T08:41:56.809Z,17.25
2022-08-07T08:44:29.273Z,16.58
2022-08-07T08:47:03.373Z,33.90
2022-08-07T08:49:46.382Z,15.75
2022-08-07T08:52:30.398Z,26.15
2022-08-07T08:55:08.134Z,22.13
2022-08-07T08:57:39.424Z,19.85
2022-08-07T09:00:09.523Z,5.65
2022-08-07T09:02:42.857Z,6.65
2022-08-07T09:05:36.981Z,12.30
2022-08-07T09:08:12.645Z,3.50
2022-08-07T09:10:59.834Z,5.70
2022-08-07T09:13:37.251Z,12.38
2022-08-07T09:16:24.320Z,9.15
2022-08-07T09:19:50.768Z,9.77
2022-08-07T09:22:36.568Z,3.90
2022-08-07T09:25:11.954Z,20.80
2022-08-07T09:27:59.578Z,21.80
2022-08-07T09:30:34.996Z,4.63
2022-08-07T09:33:16.279Z,18.63
2022-08-07T09:36:04.424Z,17.58
2022-08-07T09:38:41.180Z,3.75
2022-08-07T09:41:15.839Z,8.63
2022-08-07T09:44:06.115Z,41.97
2022-08-07T09:47:49.520Z,14.30
2022-08-07T09:50:00.666Z,2.10
2022-08-07T09:52:33.627Z,2.15
2022-08-07T09:55:17.256Z,20.63
2022-08-07T09:58:32.313Z,23.35
2022-08-07T10:01:14.825Z,17.08
2022-08-07T10:04:04.898Z,15.45
2022-08-07T10:07:03.471Z,6.88
2022-08-07T10:09:59.383Z,8.13
2022-08-07T10:12:52.645Z,25.08
2022-08-07T10:15:44.073Z,27.52
2022-08-07T10:18:26.676Z,6.95
2022-08-07T10:21:20.018Z,4.40
2022-08-07T10:24:08.681Z,2.00
2022-08-07T10:26:51.649Z,2.10
2022-08-07T10:29:43.184Z,2.50
2022-08-07T10:32:51.080Z,11.77
2022-08-07T10:35:25.829Z,1.77
2022-08-07T10:38:20.835Z,4.80
2022-08-07T10:40:54.781Z,2.70
2022-08-07T10:43:34.236Z,1.58
2022-08-07T10:46:10.014Z,1.80
2022-08-07T10:48:44.300Z,1.75
2022-08-07T10:51:39.695Z,4.60
2022-08-07T10:54:13.209Z,1.90
2022-08-07T10:56:45.658Z,9.35
2022-08-07T10:59:21.513Z,1.63
2022-08-07T11:02:05.123Z,31.60
2022-08-07T11:04:52.148Z,3.45
2022-08-07T11:07:58.853Z,1.70
2022-08-07T11:10:20.026Z,52.72
2022-08-07T11:13:02.211Z,3.42
2022-08-07T11:15:33.884Z,4.80
2022-08-07T11:18:09.608Z,13.05
2022-08-07T11:20:45.020Z,2.65
2022-08-07T11:23:30.376Z,3.15
2022-08-07T11:26:11.254Z,11.75
2022-08-07T11:28:43.684Z,1.80
2022-08-07T11:31:26.720Z,6.05
2022-08-07T11:34:00.613Z,3.80
2022-08-07T11:36:46.892Z,1.65
2022-08-07T11:39:25.802Z,5.63
2022-08-07T11:42:18.629Z,2.78
2022-08-07T11:44:52.057Z,1.75
2022-08-07T11:47:38.607Z,1.83
2022-08-07T11:50:31.653Z,1.40
2022-08-07T11:53:06.150Z,5.63
2022-08-07T11:56:19.808Z,11.30
2022-08-07T11:58:38.448Z,1.40
2022-08-07T12:01:20.180Z,2.88
2022-08-07T12:04:04.107Z,18.88
2022-08-07T12:06:57.287Z,4.00
2022-08-07T12:09:34.087Z,13.32
2022-08-07T12:12:10.503Z,5.72
2022-08-07T12:14:46.182Z,23.83
2022-08-07T12:17:26.478Z,2.17
2022-08-07T12:20:14.061Z,4.55
2022-08-07T12:23:00.878Z,1.38
2022-08-07T12:26:22.363Z,3.70
2022-08-07T12:28:52.826Z,1.40
2022-08-07T12:31:26.003Z,1.20
2022-08-07T12:34:14.738Z,15.48
2022-08-07T12:36:50.045Z,1.65
2022-08-07T12:39:44.232Z,6.07
2022-08-07T12:42:12.202Z,14.50
2022-08-07T12:44:45.437Z,4.43
2022-08-07T12:47:27.015Z,2.58
2022-08-07T12:50:04.472Z,1.45
2022-08-07T12:52:38.475Z,2.95
2022-08-07T12:55:16.481Z,2.53
2022-08-07T12:58:00.770Z,1.10
2022-08-07T13:00:49.458Z,5.82
2022-08-07T13:04:02.454Z,1.40
2022-08-07T13:07:00.451Z,3.67
2022-08-07T13:10:20.479Z,3.25
2022-08-07T13:12:30.764Z,19.40
2022-08-07T13:15:03.824Z,1.20
2022-08-07T13:17:40.673Z,1.60
2022-08-07T13:20:11.494Z,24.58
2022-08-07T13:22:42.474Z,4.88
2022-08-07T13:25:15.412Z,2.58
2022-08-07T13:28:11.705Z,2.88
2022-08-07T13:30:48.887Z,5.32
2022-08-07T13:34:31.955Z,5.68
2022-08-07T13:36:21.017Z,1.40
2022-08-07T13:39:00.661Z,1.30
2022-08-07T13:41:35.742Z,1.20
2022-08-07T13:44:12.906Z,1.10
2022-08-07T13:46:49.670Z,2.03
2022-08-07T13:50:36.632Z,6.50
2022-08-07T13:52:26.413Z,1.30
2022-08-07T13:55:01.179Z,5.35
2022-08-07T13:57:38.476Z,2.42
2022-08-07T14:00:13.487Z,1.42
2022-08-07T14:02:57.623Z,1.10
2022-08-07T14:05:38.199Z,1.40
2022-08-07T14:08:09.020Z,1.33
2022-08-07T14:10:42.484Z,1.67
2022-08-07T14:13:16.164Z,9.50
2022-08-07T14:15:50.644Z,9.35
2022-08-07T14:18:29.882Z,1.30
2022-08-07T14:21:11.555Z,1.23
2022-08-07T14:24:00.220Z,2.00
2022-08-07T14:26:33.621Z,1.20
2022-08-07T14:30:02.861Z,27.33
2022-08-07T14:31:57.966Z,2.60
2022-08-07T14:34:30.223Z,1.38
2022-08-07T14:37:03.416Z,1.23
2022-08-07T14:40:18.149Z,1.38
2022-08-07T14:42:25.060Z,1.10
2022-08-07T14:44:59.802Z,6.47
2022-08-07T14:47:47.144Z,2.65
2022-08-07T14:50:19.797Z,24.42
2022-08-07T14:52:50.425Z,1.60
2022-08-07T14:55:20.206Z,1.10
2022-08-07T14:57:54.834Z,1.20
2022-08-07T15:00:30.379Z,3.45
2022-08-07T15:03:00.244Z,1.20
2022-08-07T15:11:50.923Z,1.92
2022-08-07T15:14:18.215Z,4.40
2022-08-07T15:16:54.533Z,1.30
2022-08-07T15:20:30.280Z,7.82
2022-08-07T15:27:59.536Z,1.85
2022-08-07T15:33:42.579Z,11.52
2022-08-07T15:36:11.633Z,1.10
2022-08-07T15:38:58.889Z,1.17
2022-08-07T15:44:21.013Z,1.10
2022-08-07T15:46:57.538Z,1.00
2022-08-07T15:50:03.841Z,1.38
2022-08-07T15:52:29.630Z,2.58
2022-08-07T15:55:02.906Z,1.02
2022-08-07T15:57:39.940Z,2.13
2022-08-07T16:00:31.259Z,1.40
2022-08-07T16:03:04.100Z,1.00
2022-08-07T16:05:32.891Z,10.38
2022-08-07T16:08:33.333Z,1.70
2022-08-07T16:10:58.338Z,1.58
2022-08-07T16:13:58.424Z,1.08
2022-08-07T16:16:47.735Z,1.02
2022-08-07T16:19:42.566Z,3.25
2022-08-07T16:22:54.516Z,1.30
2022-08-07T16:25:54.210Z,4.05
2022-08-07T16:30:06.515Z,1.30
2022-08-07T16:31:51.429Z,2.15
2022-08-07T16:34:23.818Z,2.22
2022-08-07T16:38:04.139Z,1.20
2022-08-07T16:40:28.307Z,1.30
2022-08-07T16:43:01.333Z,2.75
2022-08-07T16:46:33.756Z,2.42
2022-08-07T16:50:20.216Z,1.20
2022-08-07T16:51:54.227Z,1.13
2022-08-07T16:54:54.111Z,1.10
2022-08-07T16:58:02.282Z,1.50
2022-08-07T17:00:29.679Z,1.83
2022-08-07T17:03:09.209Z,2.85
2022-08-07T17:06:19.930Z,4.18
2022-08-07T17:09:08.634Z,12.07
2022-08-07T17:12:04.404Z,1.50
2022-08-07T17:14:22.240Z,1.58
2022-08-07T17:16:55.952Z,2.17
2022-08-07T17:20:01.605Z,1.25
2022-08-07T17:22:30.102Z,2.85
2022-08-07T17:25:10.148Z,1.75
2022-08-07T17:27:51.161Z,1.70
2022-08-07T17:30:26.579Z,1.40
2022-08-07T17:34:08.715Z,1.42
2022-08-07T17:36:02.573Z,2.88
2022-08-07T17:38:35.939Z,1.65
2022-08-07T17:41:12.392Z,1.50
2022-08-07T17:44:02.648Z,1.88
2022-08-07T17:46:42.230Z,1.60
2022-08-07T17:49:23.945Z,1.60
2022-08-07T17:52:00.518Z,1.42
2022-08-07T17:54:53.533Z,1.80
2022-08-07T17:57:24.397Z,1.58
2022-08-07T17:59:54.373Z,2.42
2022-08-07T18:02:27.660Z,1.90
2022-08-07T18:05:01.310Z,2.60
2022-08-07T18:07:56.868Z,1.90
2022-08-07T18:10:33.313Z,1.90
2022-08-07T18:13:23.144Z,1.90
2022-08-07T18:16:03.542Z,2.00
2022-08-07T18:19:02.841Z,1.65
2022-08-07T18:21:58.372Z,2.20
2022-08-07T18:24:33.364Z,2.00
2022-08-07T18:27:20.916Z,1.63
2022-08-07T18:30:31.898Z,1.77
2022-08-07T18:33:10.609Z,1.83
2022-08-07T18:35:52.016Z,2.03
2022-08-07T18:38:56.529Z,2.10
2022-08-07T18:41:20.592Z,2.30
2022-08-07T18:43:57.265Z,2.10
2022-08-07T18:46:30.583Z,2.45
2022-08-07T18:50:31.210Z,2.60
2022-08-07T18:52:35.247Z,2.30
2022-08-07T18:54:51.102Z,2.20
2022-08-07T18:57:23.643Z,2.70
2022-08-07T19:00:04.470Z,2.70
2022-08-07T19:02:56.874Z,2.28
2022-08-07T19:06:03.867Z,2.47
2022-08-07T19:08:19.232Z,2.40
2022-08-07T19:10:51.523Z,2.45
2022-08-07T19:13:23.930Z,3.30
2022-08-07T19:16:05.877Z,2.53
2022-08-07T19:18:50.115Z,2.75
2022-08-07T19:21:47.621Z,2.30
2022-08-07T19:24:29.980Z,2.50
2022-08-07T19:28:58.267Z,2.58
2022-08-07T19:31:05.750Z,2.50
2022-08-07T19:32:46.075Z,3.05
2022-08-07T19:35:18.035Z,2.97
2022-08-07T19:37:56.689Z,3.10
2022-08-07T19:40:31.667Z,3.10
2022-08-07T19:43:03.141Z,3.78
2022-08-07T19:46:06.154Z,3.20
2022-08-07T19:48:31.261Z,2.85
2022-08-07T19:51:20.069Z,2.80
2022-08-07T19:54:33.818Z,2.95
2022-08-07T19:57:58.317Z,3.10
2022-08-07T19:59:42.116Z,3.42
2022-08-07T20:02:19.607Z,3.67
2022-08-07T20:04:52.234Z,2.97
2022-08-07T20:07:45.546Z,3.53
2022-08-07T20:10:35.473Z,3.72
2022-08-07T20:13:06.790Z,3.55
2022-08-07T20:15:55.296Z,3.85
2022-08-07T20:18:32.261Z,5.43
2022-08-07T20:21:21.594Z,4.15
2022-08-07T20:23:54.309Z,4.28
2022-08-07T20:26:29.886Z,4.75
2022-08-07T20:29:46.991Z,4.30
2022-08-07T20:32:00.699Z,5.35
2022-08-07T20:34:49.681Z,4.20
2022-08-07T20:37:23.354Z,4.25
2022-08-07T20:40:02.323Z,4.70
2022-08-07T20:42:33.446Z,4.93
2022-08-07T20:45:04.534Z,4.35
2022-08-07T20:47:56.000Z,4.03
2022-08-07T20:50:28.889Z,5.10
2022-08-07T20:53:00.688Z,4.18
2022-08-07T20:55:32.260Z,4.22
2022-08-07T20:58:11.860Z,6.47
2022-08-07T21:00:52.692Z,5.97
2022-08-07T21:03:25.757Z,4.95
2022-08-07T21:06:00.839Z,4.38
2022-08-07T21:08:37.191Z,4.28
2022-08-07T21:11:10.978Z,5.00
2022-08-07T21:13:57.959Z,5.00
2022-08-07T21:16:35.276Z,5.43
2022-08-07T21:19:09.133Z,4.15
2022-08-07T21:21:57.250Z,4.82
2022-08-07T21:24:30.674Z,4.18
2022-08-07T21:27:02.691Z,3.47
2022-08-07T21:29:41.330Z,4.90
2022-08-07T21:32:47.734Z,3.85
2022-08-07T21:35:14.495Z,3.95
2022-08-07T21:37:58.247Z,3.83
2022-08-07T21:40:35.754Z,4.10
2022-08-07T21:43:07.163Z,4.80
2022-08-07T21:46:10.384Z,4.32
2022-08-07T21:48:41.476Z,4.82
2022-08-07T21:51:19.505Z,4.40
2022-08-07T21:53:52.854Z,4.60
2022-08-07T21:56:40.324Z,5.32
2022-08-07T21:59:23.495Z,5.03
2022-08-07T22:02:10.302Z,4.40
2022-08-07T22:04:51.254Z,3.72
2022-08-07T22:07:31.690Z,3.78
2022-08-07T22:10:14.505Z,3.97
2022-08-07T22:12:47.464Z,4.95
2022-08-07T22:16:42.548Z,4.50
2022-08-07T22:18:12.535Z,4.70
2022-08-07T22:20:46.130Z,3.97
2022-08-07T22:23:21.689Z,4.00
2022-08-07T22:25:59.850Z,3.47
2022-08-07T22:28:32.979Z,4.45
2022-08-07T22:31:05.088Z,3.70
2022-08-07T22:33:53.221Z,4.10
2022-08-07T22:36:28.587Z,4.75
2022-08-07T22:39:01.097Z,4.95
2022-08-07T22:42:04.175Z,4.53
2022-08-07T22:44:27.170Z,4.05
2022-08-07T22:47:16.884Z,3.83
2022-08-07T22:50:05.282Z,4.03
2022-08-07T22:52:46.379Z,4.68
2022-08-07T22:55:30.088Z,5.00
2022-08-07T22:58:29.889Z,4.00
2022-08-07T23:01:07.546Z,4.30
2022-08-07T23:03:58.077Z,3.70
2022-08-07T23:06:39.187Z,4.65
2022-08-07T23:10:03.850Z,5.25
2022-08-07T23:12:11.641Z,4.90
2022-08-07T23:15:09.541Z,5.63
2022-08-07T23:17:46.373Z,4.88
2022-08-07T23:20:51.500Z,5.18
2022-08-07T23:24:06.528Z,5.28
2022-08-07T23:26:50.522Z,5.43
2022-08-07T23:29:43.482Z,4.75
2022-08-07T23:34:19.766Z,5.97
2022-08-07T23:35:17.071Z,5.75
2022-08-07T23:38:03.989Z,5.72
2022-08-07T23:40:35.002Z,5.70
2022-08-07T23:43:38.101Z,5.97
2022-08-07T23:46:14.152Z,5.70
2022-08-07T23:49:03.071Z,6.80
2022-08-07T23:52:59.791Z,7.80
2022-08-07T23:54:46.041Z,7.63
2022-08-07T23:57:18.989Z,9.30
